Andover, Massachusetts
Current Conditions -  °F | °C
As of 8:54 PM on Saturday 22 Nov 2014 (Local Time) from KLWM Reporting Station
Clear Clear  
Wind Chill:   Ceiling: Unl
Heat Index:   Visibility: 10mi
Dew Point: -10°   Wind: 13mph
Humidity: 36%   Direction: 230°SW
Pressure: 30.07"   Gusts: 21mph
Location:  42.65°N, 71.14°W
Report Text: KLWM 230154Z 23011G18KT 10SM CLR 04/M10 A3007 RMK AO2 SLP183 T00391100
Loading
Personal Weather Stations






























Interactive Weather Map New forecast layout! Learn more

10-Day Weather Forecast

Advertisements
Track Severe Weather on mobile